| time (UTC) | temp C | wind direction | speed KPH | gust KPH | rain 1hr cm | rain 24hr cm | rain mn cm | humidity % | barometer mb |
| 20260510190100 | 22 | 255 | 0.0 | 6.4 | 0.00 | 0.00 | 0.00 | 33 | 1032.9 |
| 20260510184553 | 21 | 247 | 0.0 | 12.9 | 0.00 | 0.00 | 0.00 | 33 | 1033.0 |
| 20260510183044 | 21 | 215 | 1.6 | 8.0 | 0.00 | 0.00 | 0.00 | 32 | 1032.8 |
| 20260510181642 | 20 | 183 | 1.6 | 6.4 | 0.00 | 0.00 | 0.00 | 33 | 1032.8 |
| 20260510180058 | 20 | 356 | 1.6 | 6.4 | 0.00 | 0.00 | 0.00 | 32 | 1032.7 |
| 20260510174539 | 20 | 288 | 0.0 | 12.9 | 0.00 | 0.00 | 0.00 | 33 | 1032.7 |
| 20260510173045 | 20 | 272 | 1.6 | 4.8 | 0.00 | 0.00 | 0.00 | 28 | 1032.5 |
| 20260510171532 | 20 | 221 | 0.0 | 4.8 | 0.00 | 0.00 | 0.00 | 31 | 1032.1 |
| 20260510170031 | 18 | 255 | 0.0 | 3.2 | 0.00 | 0.00 | 0.00 | 33 | 1031.8 |
| 20260510164529 | 18 | 214 | 0.0 | 3.2 | 0.00 | 0.00 | 0.00 | 33 | 1032.2 |
| 20260510163143 | 17 | 237 | 0.0 | 3.2 | 0.00 | 0.00 | 0.00 | 35 | 1032.0 |
| 20260510161557 | 16 | 360 | 0.0 | 4.8 | 0.00 | 0.00 | 0.00 | 37 | 1031.8 |
| 20260510160059 | 15 | 17 | 0.0 | 4.8 | 0.00 | 0.00 | 0.00 | 40 | 1032.2 |
| 20260510154555 | 14 | 11 | 0.0 | 4.8 | 0.00 | 0.00 | 0.00 | 43 | 1032.2 |
| 20260510153102 | 14 | 30 | 3.2 | 11.3 | 0.00 | 0.00 | 0.00 | 43 | 1032.3 |
| 20260510151620 | 13 | 21 | 4.8 | 19.3 | 0.00 | 0.00 | 0.00 | 44 | 1032.7 |
| 20260510150057 | 13 | 23 | 11.3 | 27.4 | 0.00 | 0.00 | 0.00 | 45 | 1032.6 |
| 20260510144558 | 13 | 264 | 4.8 | 17.7 | 0.00 | 0.00 | 0.00 | 46 | 1033.1 |
| 20260510143058 | 13 | 344 | 3.2 | 19.3 | 0.00 | 0.00 | 0.00 | 45 | 1033.1 |
| 20260510141543 | 13 | 287 | 0.0 | 11.3 | 0.00 | 0.00 | 0.00 | 43 | 1032.8 |
| 20260510140037 | 13 | 12 | 1.6 | 11.3 | 0.00 | 0.00 | 0.00 | 41 | 1032.0 |
| 20260510134540 | 13 | 252 | 4.8 | 19.3 | 0.00 | 0.00 | 0.00 | 39 | 1031.8 |
| 20260510133034 | 13 | 50 | 4.8 | 16.1 | 0.00 | 0.00 | 0.00 | 37 | 1031.0 |
| 20260510131531 | 13 | 6 | 4.8 | 14.5 | 0.00 | 0.00 | 0.00 | 36 | 1030.9 |
| 20260510130026 | 13 | 19 | 12.9 | 14.5 | 0.00 | 0.00 | 0.00 | 36 | 1030.2 |
| 20260510124530 | -17 | 0.0 | 0.0 | 0.00 | 0.00 | 0.00 | 1030.0 | ||
| 20260510123016 | -17 | 0.0 | 0.0 | 0.00 | 0.00 | 0.00 | 1029.8 | ||
| 20260510121517 | -17 | 0.0 | 0.0 | 0.00 | 0.00 | 0.00 | 1029.3 | ||
| 20260510120009 | -17 | 0.0 | 0.0 | 0.00 | 0.00 | 0.00 | 1028.8 | ||
| 20260510114502 | -17 | 0.0 | 0.0 | 0.00 | 0.00 | 0.00 | 1028.9 | ||
| 20260510113057 | -17 | 0.0 | 0.0 | 0.00 | 0.00 | 0.00 | 1029.0 | ||
| 20260510111556 | 15 | 12 | 3.2 | 14.5 | 0.00 | 0.00 | 0.00 | 24 | 1029.0 |
| 20260510110055 | 16 | 8 | 3.2 | 19.3 | 0.00 | 0.00 | 0.00 | 23 | 1029.0 |
| 20260510104553 | 16 | 195 | 0.0 | 0.0 | 0.00 | 0.00 | 0.00 | 22 | 1028.5 |
| 20260510103050 | 16 | 141 | 0.0 | 3.2 | 0.00 | 0.00 | 0.00 | 22 | 1028.4 |
| 20260510101553 | 16 | 280 | 0.0 | 6.4 | 0.00 | 0.00 | 0.00 | 22 | 1028.5 |
| 20260510100107 | 16 | 210 | 0.0 | 1.6 | 0.00 | 0.00 | 0.00 | 22 | 1028.6 |
| 20260510094519 | 16 | 46 | 0.0 | 6.4 | 0.00 | 0.00 | 0.00 | 21 | 1028.4 |
| 20260510093018 | 16 | 46 | 0.0 | 6.4 | 0.00 | 0.00 | 0.00 | 23 | 1028.4 |
| 20260510091517 | 15 | 167 | 0.0 | 3.2 | 0.00 | 0.00 | 0.00 | 25 | 1028.4 |
| 20260510090014 | 12 | 195 | 0.0 | 0.0 | 0.00 | 0.00 | 0.00 | 32 | 1028.5 |
| 20260510084516 | 12 | 195 | 0.0 | 0.0 | 0.00 | 0.00 | 0.00 | 32 | 1028.5 |
| 20260510083018 | 13 | 195 | 0.0 | 0.0 | 0.00 | 0.00 | 0.00 | 30 | 1028.5 |
| 20260510081602 | 14 | 195 | 0.0 | 0.0 | 0.00 | 0.00 | 0.00 | 29 | 1028.4 |
| 20260510080059 | 15 | 195 | 0.0 | 0.0 | 0.00 | 0.00 | 0.00 | 27 | 1028.5 |
| 20260510074552 | 17 | 195 | 0.0 | 0.0 | 0.00 | 0.00 | 0.00 | 25 | 1028.7 |
| 20260510073101 | 18 | 195 | 0.0 | 0.0 | 0.00 | 0.00 | 0.00 | 24 | 1028.8 |
| 20260510071550 | 18 | 195 | 0.0 | 4.8 | 0.00 | 0.00 | 0.00 | 22 | 1029.0 |
| 20260510070050 | 19 | 26 | 0.0 | 6.4 | 0.00 | 0.00 | 0.00 | 22 | 1029.3 |
| 20260510064548 | 19 | 211 | 0.0 | 4.8 | 0.00 | 0.00 | 0.00 | 22 | 1029.3 |
| 20260510063047 | 18 | 203 | 0.0 | 9.7 | 0.00 | 0.00 | 0.00 | 23 | 1029.5 |
| 20260510061535 | 17 | 220 | 0.0 | 6.4 | 0.00 | 0.00 | 0.00 | 25 | 1029.7 |
| 20260510060032 | 17 | 217 | 0.0 | 0.0 | 0.00 | 0.00 | 0.00 | 25 | 1029.9 |
| 20260510054530 | 17 | 218 | 0.0 | 4.8 | 0.00 | 0.00 | 0.00 | 25 | 1029.9 |
| 20260510053029 | 17 | 190 | 0.0 | 0.0 | 0.00 | 0.00 | 0.00 | 24 | 1029.8 |
| 20260510051600 | 18 | 190 | 0.0 | 0.0 | 0.00 | 0.00 | 0.00 | 23 | 1030.0 |
| 20260510050059 | 18 | 200 | 0.0 | 4.8 | 0.00 | 0.00 | 0.00 | 23 | 1030.3 |
| 20260510044559 | 19 | 212 | 0.0 | 3.2 | 0.00 | 0.00 | 0.00 | 22 | 1030.5 |
| 20260510043109 | 18 | 217 | 0.0 | 4.8 | 0.00 | 0.00 | 0.00 | 23 | 1030.5 |
| 20260510041554 | 17 | 174 | 0.0 | 3.2 | 0.00 | 0.00 | 0.00 | 24 | 1030.4 |
| 20260510040100 | 15 | 196 | 3.2 | 11.3 | 0.00 | 0.00 | 0.00 | 28 | 1030.6 |
| 20260510034524 | 13 | 214 | 0.0 | 0.0 | 0.00 | 0.00 | 0.00 | 28 | 1030.2 |
| 20260510033023 | 13 | 214 | 0.0 | 0.0 | 0.00 | 0.00 | 0.00 | 27 | 1029.7 |
| 20260510031521 | 14 | 214 | 0.0 | 0.0 | 0.00 | 0.00 | 0.00 | 26 | 1029.5 |
| 20260510030020 | 15 | 214 | 0.0 | 0.0 | 0.00 | 0.00 | 0.00 | 24 | 1029.5 |
| 20260510024522 | 16 | 214 | 0.0 | 0.0 | 0.00 | 0.00 | 0.00 | 22 | 1029.2 |
| 20260510023019 | 17 | 214 | 0.0 | 0.0 | 0.00 | 0.00 | 0.00 | 21 | 1029.0 |
| 20260510021518 | 18 | 214 | 0.0 | 0.0 | 0.00 | 0.00 | 0.00 | 20 | 1028.7 |
| 20260510020016 | 20 | 214 | 0.0 | 0.0 | 0.00 | 0.00 | 0.00 | 18 | 1028.5 |
| 20260510014515 | 21 | 214 | 0.0 | 1.6 | 0.00 | 0.00 | 0.00 | 16 | 1028.1 |
| 20260510013014 | 22 | 102 | 0.0 | 12.9 | 0.00 | 0.00 | 0.00 | 15 | 1028.0 |
| 20260510011529 | 22 | 212 | 0.0 | 12.9 | 0.00 | 0.00 | 0.00 | 15 | 1027.9 |
| 20260510010011 | 23 | 226 | 3.2 | 9.7 | 0.00 | 0.00 | 0.00 | 14 | 1027.7 |
| 20260510004513 | 23 | 257 | 1.6 | 4.8 | 0.00 | 0.00 | 0.00 | 14 | 1027.8 |
| 20260510003011 | 24 | 30 | 0.0 | 1.6 | 0.00 | 0.00 | 0.00 | 14 | 1027.8 |
| 20260510001507 | 25 | 176 | 1.6 | 6.4 | 0.00 | 0.00 | 0.00 | 12 | 1027.7 |
| 20260510000014 | 26 | 203 | 1.6 | 8.0 | 0.00 | 0.00 | 0.00 | 12 | 1027.9 |
| 20260509234506 | 26 | 212 | 0.0 | 11.3 | 0.00 | 0.00 | 0.00 | 12 | 1027.9 |
| 20260509233006 | 26 | 210 | 0.0 | 6.4 | 0.00 | 0.00 | 0.00 | 12 | 1028.1 |
| 20260509231503 | 26 | 23 | 3.2 | 12.9 | 0.00 | 0.00 | 0.00 | 12 | 1028.2 |
| 20260509230002 | 26 | 11 | 1.6 | 8.0 | 0.00 | 0.00 | 0.00 | 11 | 1028.3 |
| 20260509224559 | 26 | 29 | 0.0 | 12.9 | 0.00 | 0.00 | 0.00 | 11 | 1028.6 |
| 20260509223106 | 27 | 191 | 3.2 | 12.9 | 0.00 | 0.00 | 0.00 | 11 | 1028.6 |
| 20260509221554 | 27 | 238 | 1.6 | 9.7 | 0.00 | 0.00 | 0.00 | 11 | 1028.9 |
| 20260509220053 | 27 | 233 | 4.8 | 11.3 | 0.00 | 0.00 | 0.00 | 11 | 1029.2 |
| 20260509214552 | 27 | 145 | 3.2 | 12.9 | 0.00 | 0.00 | 0.00 | 11 | 1029.4 |
| 20260509213050 | 27 | 150 | 3.2 | 14.5 | 0.00 | 0.00 | 0.00 | 11 | 1029.5 |
| 20260509211548 | 26 | 198 | 1.6 | 14.5 | 0.00 | 0.00 | 0.00 | 12 | 1029.7 |
| 20260509210052 | 26 | 207 | 4.8 | 11.3 | 0.00 | 0.00 | 0.00 | 12 | 1030.1 |
| 20260509204551 | 26 | 289 | 1.6 | 9.7 | 0.00 | 0.00 | 0.00 | 13 | 1030.2 |
| 20260509203041 | 26 | 198 | 1.6 | 19.3 | 0.00 | 0.00 | 0.00 | 12 | 1030.5 |
| 20260509201540 | 27 | 221 | 0.0 | 16.1 | 0.00 | 0.00 | 0.00 | 13 | 1030.6 |
| 20260509200041 | 27 | 256 | 1.6 | 9.7 | 0.00 | 0.00 | 0.00 | 12 | 1030.7 |
| 20260509194537 | 27 | 236 | 1.6 | 9.7 | 0.00 | 0.00 | 0.00 | 12 | 1030.9 |
| 20260509193032 | 26 | 185 | 1.6 | 8.0 | 0.00 | 0.00 | 0.00 | 12 | 1031.0 |
| 20260509191529 | 26 | 215 | 1.6 | 9.7 | 0.00 | 0.00 | 0.00 | 12 | 1031.3 |